sensor_id;sensor_type;location;lat;lon;timestamp;P1;durP1;ratioP1;P2;durP2;ratioP2
66609;SDS011;53468;48.276;14.416;2023-06-05T03:54:47;8.30;;;4.18;;
66609;SDS011;53468;48.276;14.416;2023-06-05T04:46:41;6.47;;;3.67;;
66609;SDS011;53468;48.276;14.416;2023-06-05T04:52:20;7.60;;;3.88;;
66609;SDS011;53468;48.276;14.416;2023-06-05T05:08:58;4.22;;;3.30;;
66609;SDS011;53468;48.276;14.416;2023-06-05T05:14:14;5.63;;;3.30;;
66609;SDS011;53468;48.276;14.416;2023-06-05T06:19:14;4.40;;;3.23;;
66609;SDS011;53468;48.276;14.416;2023-06-05T06:24:23;5.43;;;2.70;;
66609;SDS011;53468;48.276;14.416;2023-06-05T06:29:27;3.65;;;2.22;;
66609;SDS011;53468;48.276;14.416;2023-06-05T06:34:43;4.47;;;2.90;;
66609;SDS011;53468;48.276;14.416;2023-06-05T06:39:45;4.43;;;2.70;;
66609;SDS011;53468;48.276;14.416;2023-06-05T06:44:52;6.25;;;3.00;;
66609;SDS011;53468;48.276;14.416;2023-06-05T06:49:57;6.13;;;3.40;;
66609;SDS011;53468;48.276;14.416;2023-06-05T06:55:01;5.65;;;3.10;;
66609;SDS011;53468;48.276;14.416;2023-06-05T07:00:07;6.80;;;3.97;;
66609;SDS011;53468;48.276;14.416;2023-06-05T07:05:12;10.35;;;4.68;;
66609;SDS011;53468;48.276;14.416;2023-06-05T07:10:14;5.63;;;3.40;;
66609;SDS011;53468;48.276;14.416;2023-06-05T07:15:17;5.50;;;3.22;;
66609;SDS011;53468;48.276;14.416;2023-06-05T07:20:22;5.13;;;3.53;;
66609;SDS011;53468;48.276;14.416;2023-06-05T07:25:24;9.40;;;4.75;;
66609;SDS011;53468;48.276;14.416;2023-06-05T07:30:28;8.20;;;3.78;;
66609;SDS011;53468;48.276;14.416;2023-06-05T07:35:32;7.40;;;4.38;;
66609;SDS011;53468;48.276;14.416;2023-06-05T07:40:35;5.72;;;3.67;;
66609;SDS011;53468;48.276;14.416;2023-06-05T07:45:37;6.40;;;3.95;;
66609;SDS011;53468;48.276;14.416;2023-06-05T07:50:42;5.15;;;3.92;;
66609;SDS011;53468;48.276;14.416;2023-06-05T07:55:45;6.80;;;3.97;;
66609;SDS011;53468;48.276;14.416;2023-06-05T08:00:48;7.30;;;4.30;;
66609;SDS011;53468;48.276;14.416;2023-06-05T08:05:55;5.78;;;3.80;;
66609;SDS011;53468;48.276;14.416;2023-06-05T08:10:57;6.35;;;3.40;;
66609;SDS011;53468;48.276;14.416;2023-06-05T08:16:00;7.10;;;3.83;;
66609;SDS011;53468;48.276;14.416;2023-06-05T08:21:03;6.25;;;3.88;;
66609;SDS011;53468;48.276;14.416;2023-06-05T08:26:06;5.50;;;3.67;;
66609;SDS011;53468;48.276;14.416;2023-06-05T08:31:11;4.68;;;3.25;;
66609;SDS011;53468;48.276;14.416;2023-06-05T08:36:14;4.65;;;3.30;;
66609;SDS011;53468;48.276;14.416;2023-06-05T08:41:17;6.40;;;3.75;;
66609;SDS011;53468;48.276;14.416;2023-06-05T08:46:19;6.72;;;4.13;;
66609;SDS011;53468;48.276;14.416;2023-06-05T08:51:24;6.95;;;4.25;;
66609;SDS011;53468;48.276;14.416;2023-06-05T08:56:26;4.97;;;3.60;;
66609;SDS011;53468;48.276;14.416;2023-06-05T09:01:29;5.60;;;4.05;;
66609;SDS011;53468;48.276;14.416;2023-06-05T09:06:34;4.70;;;3.60;;
66609;SDS011;53468;48.276;14.416;2023-06-05T09:11:36;4.82;;;4.00;;
66609;SDS011;53468;48.276;14.416;2023-06-05T09:16:40;4.95;;;3.95;;
66609;SDS011;53468;48.276;14.416;2023-06-05T09:21:50;6.72;;;3.58;;
66609;SDS011;53468;48.276;14.416;2023-06-05T09:26:55;5.68;;;3.83;;
66609;SDS011;53468;48.276;14.416;2023-06-05T09:31:58;6.22;;;3.28;;
66609;SDS011;53468;48.276;14.416;2023-06-05T09:37:02;9.43;;;3.60;;
66609;SDS011;53468;48.276;14.416;2023-06-05T09:42:06;6.35;;;3.08;;
66609;SDS011;53468;48.276;14.416;2023-06-05T09:47:08;4.57;;;3.20;;
66609;SDS011;53468;48.276;14.416;2023-06-05T09:52:14;7.07;;;3.33;;
66609;SDS011;53468;48.276;14.416;2023-06-05T09:57:16;5.18;;;3.58;;
66609;SDS011;53468;48.276;14.416;2023-06-05T10:02:21;6.43;;;3.92;;
66609;SDS011;53468;48.276;14.416;2023-06-05T10:07:27;4.65;;;3.22;;
66609;SDS011;53468;48.276;14.416;2023-06-05T10:12:31;5.55;;;3.13;;
66609;SDS011;53468;48.276;14.416;2023-06-05T10:17:33;4.38;;;3.17;;
66609;SDS011;53468;48.276;14.416;2023-06-05T10:22:38;4.32;;;3.38;;
66609;SDS011;53468;48.276;14.416;2023-06-05T10:27:47;5.50;;;3.92;;
66609;SDS011;53468;48.276;14.416;2023-06-05T10:33:01;5.88;;;3.22;;
66609;SDS011;53468;48.276;14.416;2023-06-05T10:38:14;4.75;;;3.35;;
66609;SDS011;53468;48.276;14.416;2023-06-05T10:43:28;5.35;;;3.33;;
66609;SDS011;53468;48.276;14.416;2023-06-05T10:54:10;4.70;;;3.53;;
66609;SDS011;53468;48.276;14.416;2023-06-05T10:59:15;4.32;;;3.20;;
66609;SDS011;53468;48.276;14.416;2023-06-05T11:04:20;6.65;;;3.20;;
66609;SDS011;53468;48.276;14.416;2023-06-05T11:09:23;6.97;;;3.72;;
66609;SDS011;53468;48.276;14.416;2023-06-05T11:19:45;4.35;;;3.25;;
66609;SDS011;53468;48.276;14.416;2023-06-05T11:24:48;4.35;;;3.13;;
66609;SDS011;53468;48.276;14.416;2023-06-05T11:30:28;5.32;;;3.30;;
66609;SDS011;53468;48.276;14.416;2023-06-05T11:35:32;5.30;;;3.15;;
66609;SDS011;53468;48.276;14.416;2023-06-05T11:40:35;6.13;;;3.90;;
66609;SDS011;53468;48.276;14.416;2023-06-05T11:45:39;6.95;;;3.75;;
66609;SDS011;53468;48.276;14.416;2023-06-05T11:50:50;6.35;;;3.45;;
66609;SDS011;53468;48.276;14.416;2023-06-05T11:55:56;7.28;;;3.17;;
66609;SDS011;53468;48.276;14.416;2023-06-05T12:01:09;5.80;;;4.00;;
66609;SDS011;53468;48.276;14.416;2023-06-05T12:06:18;5.68;;;3.60;;
66609;SDS011;53468;48.276;14.416;2023-06-05T12:11:25;5.10;;;3.42;;
66609;SDS011;53468;48.276;14.416;2023-06-05T12:16:29;4.40;;;3.42;;
66609;SDS011;53468;48.276;14.416;2023-06-05T12:21:33;4.18;;;2.85;;
66609;SDS011;53468;48.276;14.416;2023-06-05T12:26:53;4.90;;;3.30;;
66609;SDS011;53468;48.276;14.416;2023-06-05T12:31:58;5.07;;;3.20;;
66609;SDS011;53468;48.276;14.416;2023-06-05T12:37:01;5.50;;;3.38;;
66609;SDS011;53468;48.276;14.416;2023-06-05T12:42:09;5.45;;;3.72;;
66609;SDS011;53468;48.276;14.416;2023-06-05T12:47:11;6.38;;;4.15;;
66609;SDS011;53468;48.276;14.416;2023-06-05T12:52:13;7.93;;;4.20;;
66609;SDS011;53468;48.276;14.416;2023-06-05T12:57:17;5.35;;;3.67;;
66609;SDS011;53468;48.276;14.416;2023-06-05T13:02:21;5.57;;;3.85;;
66609;SDS011;53468;48.276;14.416;2023-06-05T13:07:23;9.30;;;4.78;;
66609;SDS011;53468;48.276;14.416;2023-06-05T13:12:26;6.68;;;4.38;;
66609;SDS011;53468;48.276;14.416;2023-06-05T13:17:28;8.68;;;5.30;;
66609;SDS011;53468;48.276;14.416;2023-06-05T13:22:34;6.53;;;4.90;;
66609;SDS011;53468;48.276;14.416;2023-06-05T13:27:38;8.25;;;5.43;;
66609;SDS011;53468;48.276;14.416;2023-06-05T13:32:40;11.52;;;5.30;;
66609;SDS011;53468;48.276;14.416;2023-06-05T13:37:44;8.93;;;6.25;;
66609;SDS011;53468;48.276;14.416;2023-06-05T13:42:51;9.23;;;5.88;;
66609;SDS011;53468;48.276;14.416;2023-06-05T13:47:54;8.23;;;6.07;;
66609;SDS011;53468;48.276;14.416;2023-06-05T13:52:58;10.55;;;6.10;;
66609;SDS011;53468;48.276;14.416;2023-06-05T13:58:04;8.45;;;5.80;;
66609;SDS011;53468;48.276;14.416;2023-06-05T14:03:10;7.07;;;5.85;;
66609;SDS011;53468;48.276;14.416;2023-06-05T14:08:15;7.90;;;4.60;;
66609;SDS011;53468;48.276;14.416;2023-06-05T14:13:27;5.80;;;4.70;;
66609;SDS011;53468;48.276;14.416;2023-06-05T14:18:44;5.82;;;3.95;;
66609;SDS011;53468;48.276;14.416;2023-06-05T14:23:50;5.55;;;3.97;;
66609;SDS011;53468;48.276;14.416;2023-06-05T14:34:19;7.78;;;3.88;;
66609;SDS011;53468;48.276;14.416;2023-06-05T14:39:26;6.18;;;4.00;;
66609;SDS011;53468;48.276;14.416;2023-06-05T14:50:09;5.10;;;4.00;;
66609;SDS011;53468;48.276;14.416;2023-06-05T14:55:12;5.80;;;3.95;;
66609;SDS011;53468;48.276;14.416;2023-06-05T15:00:15;6.88;;;4.05;;
66609;SDS011;53468;48.276;14.416;2023-06-05T15:05:19;8.32;;;3.72;;
66609;SDS011;53468;48.276;14.416;2023-06-05T15:10:22;6.43;;;3.50;;
66609;SDS011;53468;48.276;14.416;2023-06-05T15:15:26;5.82;;;4.38;;
66609;SDS011;53468;48.276;14.416;2023-06-05T15:20:28;5.30;;;3.65;;
66609;SDS011;53468;48.276;14.416;2023-06-05T15:25:30;7.00;;;4.85;;
66609;SDS011;53468;48.276;14.416;2023-06-05T15:30:35;6.78;;;4.10;;
66609;SDS011;53468;48.276;14.416;2023-06-05T15:35:37;6.22;;;4.50;;
66609;SDS011;53468;48.276;14.416;2023-06-05T15:40:42;7.28;;;4.28;;
66609;SDS011;53468;48.276;14.416;2023-06-05T15:45:49;6.35;;;4.40;;
66609;SDS011;53468;48.276;14.416;2023-06-05T15:50:55;8.37;;;5.53;;
66609;SDS011;53468;48.276;14.416;2023-06-05T15:55:59;9.20;;;4.72;;
66609;SDS011;53468;48.276;14.416;2023-06-05T16:01:06;7.13;;;4.70;;
66609;SDS011;53468;48.276;14.416;2023-06-05T16:06:09;7.85;;;5.35;;
66609;SDS011;53468;48.276;14.416;2023-06-05T16:11:11;8.18;;;5.63;;
66609;SDS011;53468;48.276;14.416;2023-06-05T16:16:20;7.32;;;5.07;;
66609;SDS011;53468;48.276;14.416;2023-06-05T16:21:24;8.43;;;5.20;;
66609;SDS011;53468;48.276;14.416;2023-06-05T16:26:27;6.07;;;4.70;;
66609;SDS011;53468;48.276;14.416;2023-06-05T16:31:49;7.93;;;5.40;;
66609;SDS011;53468;48.276;14.416;2023-06-05T16:36:54;6.07;;;4.65;;
66609;SDS011;53468;48.276;14.416;2023-06-05T16:41:57;8.57;;;4.80;;
66609;SDS011;53468;48.276;14.416;2023-06-05T16:47:58;5.90;;;4.43;;
66609;SDS011;53468;48.276;14.416;2023-06-05T16:53:04;6.70;;;4.95;;
66609;SDS011;53468;48.276;14.416;2023-06-05T16:58:07;6.53;;;4.57;;
66609;SDS011;53468;48.276;14.416;2023-06-05T17:15:11;8.17;;;4.50;;
66609;SDS011;53468;48.276;14.416;2023-06-05T17:20:29;6.80;;;4.65;;
66609;SDS011;53468;48.276;14.416;2023-06-05T17:25:48;6.50;;;4.85;;
66609;SDS011;53468;48.276;14.416;2023-06-05T17:42:39;5.67;;;3.87;;
66609;SDS011;53468;48.276;14.416;2023-06-05T17:48:07;5.20;;;3.85;;
66609;SDS011;53468;48.276;14.416;2023-06-05T17:53:51;6.63;;;4.40;;
66609;SDS011;53468;48.276;14.416;2023-06-05T18:05:42;5.57;;;3.78;;
66609;SDS011;53468;48.276;14.416;2023-06-05T18:11:42;6.68;;;3.38;;
66609;SDS011;53468;48.276;14.416;2023-06-05T18:18:02;5.03;;;3.53;;
66609;SDS011;53468;48.276;14.416;2023-06-05T18:34:48;6.20;;;4.68;;
66609;SDS011;53468;48.276;14.416;2023-06-05T18:40:28;6.80;;;3.97;;
66609;SDS011;53468;48.276;14.416;2023-06-05T18:46:11;5.70;;;4.22;;
66609;SDS011;53468;48.276;14.416;2023-06-05T18:51:55;6.47;;;4.43;;
66609;SDS011;53468;48.276;14.416;2023-06-05T19:15:44;6.63;;;3.90;;
66609;SDS011;53468;48.276;14.416;2023-06-05T19:21:54;7.70;;;4.25;;
66609;SDS011;53468;48.276;14.416;2023-06-05T19:27:02;5.20;;;3.40;;
66609;SDS011;53468;48.276;14.416;2023-06-05T19:32:31;7.05;;;3.85;;
66609;SDS011;53468;48.276;14.416;2023-06-05T20:01:36;5.38;;;3.70;;
66609;SDS011;53468;48.276;14.416;2023-06-05T20:07:06;10.65;;;3.95;;
66609;SDS011;53468;48.276;14.416;2023-06-05T20:12:39;6.78;;;4.32;;
66609;SDS011;53468;48.276;14.416;2023-06-05T23:20:53;7.07;;;5.15;;
